Time;durP1;ratioP1;P1;durP2;ratioP2;P2;SDS_P1;SDS_P2;PMS_P1;PMS_P2;Temp;Humidity;BMP_temperature;BMP_pressure;BME280_temperature;BME280_humidity;BME280_pressure;Samples;Min_cycle;Max_cycle;Signal;HPM_P1;HPM_P2
2024/01/30 00:01:41;;;;;;;23.55;15.73;;;6.30;99.90;;;;;;5091880;28;20131;-61
2024/01/30 00:04:07;;;;;;;22.65;15.75;;;6.30;99.90;;;;;;5091547;28;20073;-61
2024/01/30 00:06:32;;;;;;;24.38;17.13;;;6.30;99.90;;;;;;5091427;28;20051;-61
2024/01/30 00:08:58;;;;;;;21.83;15.25;;;6.30;99.90;;;;;;5091604;28;20059;-61
2024/01/30 00:11:26;;;;;;;24.48;17.35;;;6.20;99.90;;;;;;5091868;28;20044;-61
2024/01/30 00:13:52;;;;;;;23.52;16.85;;;6.30;99.90;;;;;;5091557;28;20044;-61
2024/01/30 00:16:23;;;;;;;24.90;17.75;;;6.20;99.90;;;;;;5073869;28;20396;-61
2024/01/30 00:18:52;;;;;;;25.25;17.02;;;6.20;99.90;;;;;;5090767;28;20149;-61
2024/01/30 00:21:18;;;;;;;25.15;15.68;;;6.20;99.90;;;;;;5091356;28;20043;-61
2024/01/30 00:23:44;;;;;;;26.17;17.20;;;6.20;99.90;;;;;;5090499;28;20043;-61
2024/01/30 00:26:11;;;;;;;27.30;17.08;;;6.30;99.90;;;;;;5092205;28;20051;-61
2024/01/30 00:28:37;;;;;;;23.33;16.40;;;6.20;99.90;;;;;;5090880;28;20469;-61
2024/01/30 00:31:03;;;;;;;25.80;16.30;;;6.30;99.90;;;;;;5091053;28;20394;-61
2024/01/30 00:33:29;;;;;;;26.67;16.45;;;6.30;99.90;;;;;;5090927;28;20047;-61
2024/01/30 00:35:54;;;;;;;26.65;16.45;;;6.30;99.90;;;;;;5092403;28;20043;-61
2024/01/30 00:38:20;;;;;;;24.17;16.58;;;6.30;99.90;;;;;;5091695;28;20077;-62
2024/01/30 00:40:45;;;;;;;27.90;17.00;;;6.30;99.90;;;;;;5090351;28;20043;-61
2024/01/30 00:43:11;;;;;;;25.95;16.55;;;6.30;99.90;;;;;;5092182;28;20072;-61
2024/01/30 00:45:37;;;;;;;25.42;18.38;;;6.30;99.90;;;;;;5090635;28;20036;-61
2024/01/30 00:48:04;;;;;;;24.35;17.80;;;6.30;99.90;;;;;;5090731;28;20044;-61
2024/01/30 00:50:29;;;;;;;22.58;15.20;;;6.20;99.90;;;;;;5090801;28;20568;-61
2024/01/30 00:52:55;;;;;;;26.88;17.23;;;6.20;99.90;;;;;;5090990;28;20087;-61
2024/01/30 00:55:21;;;;;;;23.88;16.15;;;6.20;99.90;;;;;;5091716;28;20036;-61
2024/01/30 00:57:47;;;;;;;22.70;16.55;;;6.30;99.90;;;;;;5107868;28;20036;-61
2024/01/30 01:00:16;;;;;;;25.38;16.42;;;6.30;99.90;;;;;;5090265;28;20044;-61
2024/01/30 01:02:42;;;;;;;23.23;16.10;;;6.30;99.90;;;;;;5090501;28;20052;-61
2024/01/30 01:05:08;;;;;;;25.13;17.02;;;6.30;99.90;;;;;;5090746;28;20074;-61
2024/01/30 01:07:34;;;;;;;25.48;16.23;;;6.30;99.90;;;;;;5106620;28;20087;-61
2024/01/30 01:09:59;;;;;;;23.40;15.73;;;6.30;99.90;;;;;;5108263;28;20063;-61
2024/01/30 01:12:25;;;;;;;26.42;17.38;;;6.30;99.90;;;;;;5106868;28;20043;-61
2024/01/30 01:14:51;;;;;;;22.38;15.77;;;6.30;99.90;;;;;;5090437;28;20108;-61
2024/01/30 01:17:18;;;;;;;22.95;16.17;;;6.30;99.90;;;;;;5089849;28;20028;-61
2024/01/30 01:19:44;;;;;;;25.60;15.85;;;6.30;99.90;;;;;;5090001;28;20036;-62
2024/01/30 01:22:10;;;;;;;24.20;16.35;;;6.30;99.90;;;;;;5090384;28;20066;-61
2024/01/30 01:24:36;;;;;;;25.77;16.92;;;6.30;99.90;;;;;;5091654;28;20400;-61
2024/01/30 01:27:02;;;;;;;25.20;16.00;;;6.30;99.90;;;;;;5090937;28;20032;-61
2024/01/30 01:29:30;;;;;;;21.20;15.90;;;6.30;99.90;;;;;;5073462;28;20040;-61
2024/01/30 01:31:56;;;;;;;26.30;16.73;;;6.30;99.90;;;;;;5090538;28;20036;-61
2024/01/30 01:34:23;;;;;;;24.52;16.70;;;6.40;99.90;;;;;;5089818;28;20044;-61
2024/01/30 01:36:49;;;;;;;29.75;16.15;;;6.40;99.90;;;;;;5073663;28;20370;-61
2024/01/30 01:39:15;;;;;;;24.35;16.45;;;6.40;99.90;;;;;;5090390;28;20110;-61
2024/01/30 01:41:41;;;;;;;26.23;16.83;;;6.40;99.90;;;;;;5090242;28;20075;-61
2024/01/30 01:44:08;;;;;;;23.25;16.80;;;6.40;99.90;;;;;;5090579;28;20489;-61
2024/01/30 01:46:34;;;;;;;26.50;17.10;;;6.40;99.90;;;;;;5090371;28;20485;-61
2024/01/30 01:49:02;;;;;;;22.00;16.20;;;6.40;99.90;;;;;;5091074;28;20032;-61
2024/01/30 01:51:30;;;;;;;26.70;16.15;;;6.40;99.90;;;;;;5090304;28;20040;-61
2024/01/30 01:53:57;;;;;;;21.70;15.55;;;6.50;99.90;;;;;;5094300;28;20047;-61
2024/01/30 01:56:24;;;;;;;23.15;16.50;;;6.50;99.90;;;;;;5093448;28;20093;-61
2024/01/30 01:58:51;;;;;;;20.55;15.25;;;6.40;99.90;;;;;;5077176;28;20036;-61
2024/01/30 02:01:19;;;;;;;23.77;16.90;;;6.50;99.90;;;;;;5095133;28;20412;-61
2024/01/30 02:03:46;;;;;;;23.90;16.48;;;6.50;99.90;;;;;;5093506;28;20055;-61
2024/01/30 02:06:14;;;;;;;27.70;16.40;;;6.50;99.90;;;;;;5093862;28;20114;-61
2024/01/30 02:08:40;;;;;;;28.02;16.85;;;6.60;99.90;;;;;;5093200;28;20064;-61
2024/01/30 02:11:06;;;;;;;21.38;14.73;;;6.50;99.90;;;;;;5093757;28;20055;-61
2024/01/30 02:13:32;;;;;;;23.50;15.65;;;6.50;99.90;;;;;;5110453;28;20040;-61
2024/01/30 02:15:57;;;;;;;23.27;16.35;;;6.60;99.90;;;;;;5110178;28;20055;-61
2024/01/30 02:18:23;;;;;;;22.45;15.77;;;6.50;99.90;;;;;;5081916;28;20393;-61
2024/01/30 02:20:50;;;;;;;23.30;16.00;;;6.60;99.90;;;;;;5073470;28;20478;-61
2024/01/30 02:23:16;;;;;;;22.50;15.10;;;6.60;99.90;;;;;;5073960;28;20055;-62
2024/01/30 02:25:44;;;;;;;21.98;15.32;;;6.60;99.90;;;;;;5092927;28;20044;-61
2024/01/30 02:28:13;;;;;;;22.88;14.23;;;6.60;99.90;;;;;;5076647;28;20047;-61
2024/01/30 02:30:39;;;;;;;22.35;15.75;;;6.60;99.90;;;;;;5092812;28;20055;-61
2024/01/30 02:33:05;;;;;;;24.02;16.45;;;6.50;99.90;;;;;;5076556;28;20044;-61
2024/01/30 02:35:31;;;;;;;23.95;17.17;;;6.60;99.90;;;;;;5093322;28;20130;-61
2024/01/30 02:37:56;;;;;;;23.25;16.00;;;6.60;99.90;;;;;;5093010;28;20481;-61
2024/01/30 02:40:22;;;;;;;24.98;16.25;;;6.60;99.90;;;;;;5094309;28;20031;-61
2024/01/30 02:42:48;;;;;;;21.35;14.77;;;6.60;99.90;;;;;;5094367;28;20038;-62
2024/01/30 02:45:14;;;;;;;23.92;15.18;;;6.60;99.90;;;;;;5093866;28;20040;-61
2024/01/30 02:47:40;;;;;;;22.48;15.25;;;6.70;99.90;;;;;;5075110;28;20039;-61
2024/01/30 02:50:06;;;;;;;24.52;15.20;;;6.70;99.90;;;;;;5093396;28;20123;-61
2024/01/30 02:52:32;;;;;;;20.58;14.85;;;6.70;99.90;;;;;;5093177;28;20036;-61
2024/01/30 02:54:58;;;;;;;24.25;15.48;;;6.70;99.90;;;;;;5093058;28;20116;-61
2024/01/30 02:57:23;;;;;;;21.08;14.95;;;6.80;99.90;;;;;;5109821;28;20032;-61
2024/01/30 02:59:49;;;;;;;20.98;14.98;;;6.80;99.90;;;;;;5108821;28;20032;-61
2024/01/30 03:02:15;;;;;;;25.48;16.40;;;6.80;99.90;;;;;;5092392;28;20130;-61
2024/01/30 03:04:43;;;;;;;21.27;14.60;;;6.90;99.90;;;;;;5092784;28;20055;-61
2024/01/30 03:07:09;;;;;;;21.90;15.00;;;6.80;99.90;;;;;;5108798;28;20052;-61
2024/01/30 03:09:36;;;;;;;22.58;15.65;;;6.80;99.90;;;;;;5092693;28;20070;-61
2024/01/30 03:12:02;;;;;;;23.45;14.80;;;6.90;99.90;;;;;;5093508;28;20063;-61
2024/01/30 03:14:29;;;;;;;22.38;14.40;;;6.90;99.90;;;;;;5075429;28;20039;-61
2024/01/30 03:16:55;;;;;;;22.60;14.32;;;6.90;99.90;;;;;;5094020;28;20123;-61
2024/01/30 03:19:21;;;;;;;23.15;15.13;;;6.90;99.90;;;;;;5091974;28;20536;-61
2024/01/30 03:21:46;;;;;;;23.77;16.15;;;6.90;99.90;;;;;;5091779;28;20123;-61
2024/01/30 03:24:12;;;;;;;19.92;13.82;;;6.90;99.90;;;;;;5075536;28;20124;-61
2024/01/30 03:26:37;;;;;;;22.40;14.15;;;6.90;99.90;;;;;;5091766;28;20457;-61
2024/01/30 03:29:03;;;;;;;21.88;14.10;;;6.90;99.90;;;;;;5091914;28;20047;-61
2024/01/30 03:31:29;;;;;;;22.65;14.07;;;6.90;99.90;;;;;;5093329;28;20044;-61
2024/01/30 03:33:54;;;;;;;20.85;13.75;;;6.90;99.90;;;;;;5093164;28;20066;-61
2024/01/30 03:36:20;;;;;;;25.13;16.00;;;6.80;99.90;;;;;;5093163;28;20040;-61
2024/01/30 03:38:46;;;;;;;21.77;14.98;;;6.80;99.90;;;;;;5092091;28;20036;-61
2024/01/30 03:41:12;;;;;;;23.27;13.65;;;6.80;99.90;;;;;;5092280;28;20047;-61
2024/01/30 03:43:37;;;;;;;26.85;15.20;;;6.80;99.90;;;;;;5091887;28;20036;-61
2024/01/30 03:46:03;;;;;;;20.65;14.65;;;6.80;99.90;;;;;;5109513;28;20480;-61
2024/01/30 03:48:29;;;;;;;20.33;14.32;;;6.80;99.90;;;;;;5092747;28;20040;-61
2024/01/30 03:50:55;;;;;;;20.40;14.07;;;6.70;99.90;;;;;;5074802;28;20059;-61
2024/01/30 03:53:21;;;;;;;23.42;13.70;;;6.70;99.90;;;;;;5092001;28;20400;-61
2024/01/30 03:55:47;;;;;;;21.08;13.70;;;6.80;99.90;;;;;;5108444;28;20085;-61
2024/01/30 03:58:12;;;;;;;21.73;15.20;;;6.70;99.90;;;;;;5092586;28;20427;-61
2024/01/30 04:00:38;;;;;;;20.13;13.45;;;6.80;99.90;;;;;;5092904;28;20110;-61
2024/01/30 04:03:04;;;;;;;23.60;15.18;;;6.80;99.90;;;;;;5108332;28;20040;-61
2024/01/30 04:05:29;;;;;;;20.73;14.02;;;6.80;99.90;;;;;;5108523;28;20043;-62
2024/01/30 04:07:55;;;;;;;21.80;14.75;;;6.80;99.90;;;;;;5107881;28;20052;-61
2024/01/30 04:10:21;;;;;;;22.92;13.77;;;6.90;99.90;;;;;;5090536;28;20048;-61
2024/01/30 04:12:46;;;;;;;18.40;13.25;;;6.90;99.90;;;;;;5091411;28;20046;-61
2024/01/30 04:15:13;;;;;;;21.58;13.98;;;6.90;99.90;;;;;;5090824;28;20115;-61
2024/01/30 04:17:39;;;;;;;19.73;13.23;;;6.90;99.90;;;;;;5091799;28;20036;-62
2024/01/30 04:20:06;;;;;;;20.00;13.27;;;6.90;99.90;;;;;;5091764;28;20048;-61
2024/01/30 04:22:31;;;;;;;19.13;13.32;;;6.90;99.90;;;;;;5090611;28;20044;-61
2024/01/30 04:24:57;;;;;;;19.65;13.10;;;6.90;99.90;;;;;;5074454;28;20396;-61
2024/01/30 04:27:23;;;;;;;19.92;14.38;;;6.90;99.90;;;;;;5074146;28;20044;-61
2024/01/30 04:29:48;;;;;;;18.70;12.77;;;7.00;99.90;;;;;;5107791;28;20071;-61
2024/01/30 04:32:14;;;;;;;20.00;13.57;;;6.90;99.90;;;;;;5090085;28;20040;-61
2024/01/30 04:34:40;;;;;;;20.45;12.70;;;6.90;99.90;;;;;;5091188;28;20450;-61
2024/01/30 04:37:06;;;;;;;22.67;13.18;;;7.00;99.90;;;;;;5090880;28;20040;-61
2024/01/30 04:39:33;;;;;;;17.30;14.05;;;7.00;99.90;;;;;;5090538;28;20043;-61
2024/01/30 04:41:59;;;;;;;19.85;11.82;;;7.10;99.90;;;;;;5092517;28;20064;-61
2024/01/30 04:44:25;;;;;;;17.52;11.75;;;7.10;99.90;;;;;;5090390;28;20040;-61
2024/01/30 04:46:50;;;;;;;20.30;12.80;;;7.10;99.90;;;;;;5090960;28;20043;-61
2024/01/30 04:49:16;;;;;;;20.95;12.57;;;7.10;99.90;;;;;;5091207;28;20040;-61
2024/01/30 04:51:42;;;;;;;19.23;11.95;;;7.10;99.90;;;;;;5090342;28;20508;-61
2024/01/30 04:54:07;;;;;;;20.63;13.93;;;7.10;99.90;;;;;;5091068;28;20051;-61
2024/01/30 04:56:34;;;;;;;19.60;12.52;;;7.10;99.90;;;;;;5091058;28;20430;-61
2024/01/30 04:59:00;;;;;;;18.05;11.57;;;7.10;99.90;;;;;;5090193;28;20036;-61
2024/01/30 05:01:25;;;;;;;19.92;11.30;;;7.20;99.90;;;;;;5090356;28;20039;-61
2024/01/30 05:03:51;;;;;;;19.45;12.82;;;7.10;99.90;;;;;;5091852;28;20048;-61
2024/01/30 05:06:27;;;;;;;22.60;12.85;;;7.10;99.90;;;;;;5090226;28;20036;-61
2024/01/30 05:08:53;;;;;;;17.60;11.40;;;7.10;99.90;;;;;;5090525;28;20052;-61
2024/01/30 05:11:19;;;;;;;21.98;12.18;;;7.10;99.90;;;;;;5107485;28;20052;-61
2024/01/30 05:13:44;;;;;;;21.40;12.70;;;7.20;99.90;;;;;;5090071;28;20085;-61
2024/01/30 05:16:10;;;;;;;19.05;12.50;;;7.20;99.90;;;;;;5090521;28;20040;-61
2024/01/30 05:18:36;;;;;;;19.55;11.80;;;7.20;99.90;;;;;;5107118;28;20044;-61
2024/01/30 05:21:03;;;;;;;17.52;11.60;;;7.20;99.90;;;;;;5090729;28;20467;-61
2024/01/30 05:23:29;;;;;;;21.45;11.80;;;7.20;99.90;;;;;;5074079;28;20439;-61
2024/01/30 05:25:54;;;;;;;18.23;11.70;;;7.20;99.90;;;;;;5091109;28;20048;-61
2024/01/30 05:28:20;;;;;;;15.80;11.02;;;7.10;99.90;;;;;;5094259;28;20043;-61
2024/01/30 05:30:46;;;;;;;17.98;9.35;;;7.10;99.90;;;;;;5094499;28;20055;-61
2024/01/30 05:33:12;;;;;;;15.50;10.77;;;7.10;99.90;;;;;;5095311;28;20084;-61
2024/01/30 05:35:38;;;;;;;16.25;10.00;;;7.10;99.90;;;;;;5093831;28;20068;-61
2024/01/30 05:38:04;;;;;;;17.65;11.68;;;7.10;99.90;;;;;;5077946;28;20381;-62
2024/01/30 05:40:30;;;;;;;17.73;11.52;;;7.10;99.90;;;;;;5093411;28;20119;-61
2024/01/30 05:43:00;;;;;;;18.85;11.50;;;7.20;99.90;;;;;;5094605;28;20063;-61
2024/01/30 05:45:26;;;;;;;17.98;11.02;;;7.10;99.90;;;;;;5094731;28;20036;-61
2024/01/30 05:47:52;;;;;;;17.08;10.93;;;7.10;99.90;;;;;;5093749;28;20495;-61
2024/01/30 05:50:19;;;;;;;17.13;11.38;;;7.10;99.90;;;;;;5077334;28;20044;-61
2024/01/30 05:52:45;;;;;;;17.75;10.15;;;7.10;99.90;;;;;;5094184;28;20119;-61
2024/01/30 05:55:11;;;;;;;14.50;9.82;;;7.10;99.90;;;;;;5093617;28;20504;-61
2024/01/30 05:57:37;;;;;;;17.75;11.52;;;7.10;99.90;;;;;;5094275;28;20063;-61
2024/01/30 06:00:05;;;;;;;18.75;10.90;;;7.10;99.90;;;;;;5094327;28;20131;-61
2024/01/30 06:02:31;;;;;;;16.83;10.52;;;7.10;99.90;;;;;;5075934;28;20066;-61
2024/01/30 06:04:56;;;;;;;17.20;10.05;;;7.10;99.90;;;;;;5094099;28;20492;-61
2024/01/30 06:07:23;;;;;;;18.13;11.75;;;7.10;99.90;;;;;;5093715;28;20052;-61
2024/01/30 06:09:49;;;;;;;18.33;11.40;;;7.10;99.90;;;;;;5093135;28;20109;-61
2024/01/30 06:12:14;;;;;;;17.33;10.88;;;7.00;99.90;;;;;;5093761;28;20036;-61
2024/01/30 06:14:42;;;;;;;19.25;10.95;;;7.10;99.90;;;;;;5093965;28;20435;-61
2024/01/30 06:17:08;;;;;;;17.83;10.73;;;7.00;99.90;;;;;;5093280;28;20059;-61
2024/01/30 06:19:34;;;;;;;17.98;11.77;;;7.10;99.90;;;;;;5094889;28;20047;-61
2024/01/30 06:21:59;;;;;;;15.80;10.85;;;7.10;99.90;;;;;;5075984;28;20546;-61
2024/01/30 06:24:25;;;;;;;17.75;11.00;;;7.10;99.90;;;;;;5110641;28;20036;-61
2024/01/30 06:26:51;;;;;;;19.63;10.80;;;7.00;99.90;;;;;;5076522;28;20044;-61
2024/01/30 06:29:16;;;;;;;20.40;11.18;;;7.00;99.90;;;;;;5092770;28;20044;-61
2024/01/30 06:31:42;;;;;;;19.30;11.50;;;7.10;99.90;;;;;;5094578;28;20112;-61
2024/01/30 06:34:11;;;;;;;18.25;11.25;;;7.10;99.90;;;;;;5092886;28;20144;-61
2024/01/30 06:36:37;;;;;;;18.98;11.98;;;7.10;99.90;;;;;;5093051;28;20484;-61
2024/01/30 06:39:03;;;;;;;19.58;11.65;;;7.10;99.90;;;;;;5093609;28;20119;-61
2024/01/30 06:41:29;;;;;;;17.15;11.68;;;7.10;99.90;;;;;;5093438;28;20140;-61
2024/01/30 06:43:55;;;;;;;15.30;11.02;;;7.10;99.90;;;;;;5093030;28;20400;-61
2024/01/30 06:46:21;;;;;;;18.55;12.25;;;7.10;99.90;;;;;;5094317;28;20040;-61
2024/01/30 06:48:47;;;;;;;16.90;12.75;;;7.10;99.90;;;;;;5110417;28;20047;-61
2024/01/30 06:51:12;;;;;;;16.92;10.25;;;7.20;99.90;;;;;;5093663;28;20085;-61
2024/01/30 06:53:38;;;;;;;17.15;10.27;;;7.10;99.90;;;;;;5109942;28;20048;-61
2024/01/30 06:56:04;;;;;;;19.35;12.02;;;7.20;99.90;;;;;;5093227;28;20093;-61
2024/01/30 06:58:30;;;;;;;19.00;11.55;;;7.20;99.90;;;;;;5091603;28;20044;-61
2024/01/30 07:00:56;;;;;;;18.10;11.63;;;7.10;99.90;;;;;;5093275;28;20050;-61
2024/01/30 07:03:22;;;;;;;16.30;10.88;;;7.20;99.90;;;;;;5092597;28;20051;-61
2024/01/30 07:05:47;;;;;;;16.10;11.38;;;7.20;99.90;;;;;;5092052;28;20040;-61
2024/01/30 07:08:13;;;;;;;16.48;11.10;;;7.20;99.90;;;;;;5092042;28;20048;-61
2024/01/30 07:10:39;;;;;;;17.98;10.90;;;7.20;99.90;;;;;;5092169;28;20084;-61
2024/01/30 07:13:05;;;;;;;17.30;10.65;;;7.20;99.90;;;;;;5109475;28;20072;-61
2024/01/30 07:15:31;;;;;;;19.50;11.48;;;7.20;99.90;;;;;;5109614;28;20055;-61
2024/01/30 07:17:57;;;;;;;18.33;10.82;;;7.20;99.90;;;;;;5109959;28;20477;-61
2024/01/30 07:20:23;;;;;;;17.88;10.85;;;7.20;99.90;;;;;;5092590;28;20039;-61
2024/01/30 07:22:49;;;;;;;20.17;11.32;;;7.20;99.90;;;;;;5092476;28;20044;-61
2024/01/30 07:25:16;;;;;;;18.92;10.73;;;7.20;99.90;;;;;;5092828;28;20032;-61
2024/01/30 07:27:42;;;;;;;15.93;10.90;;;7.30;99.90;;;;;;5093452;28;20040;-61
2024/01/30 07:30:08;;;;;;;15.95;9.82;;;7.30;99.90;;;;;;5092257;28;20055;-61
2024/01/30 07:32:33;;;;;;;18.48;10.63;;;7.30;99.90;;;;;;5091351;28;20048;-61
2024/01/30 07:34:59;;;;;;;19.83;12.13;;;7.30;99.90;;;;;;5109345;28;20122;-61
2024/01/30 07:37:25;;;;;;;17.23;10.68;;;7.40;99.90;;;;;;5092063;28;20067;-61
2024/01/30 07:39:50;;;;;;;15.82;11.25;;;7.40;99.90;;;;;;5074642;28;20044;-61
2024/01/30 07:42:17;;;;;;;18.30;11.77;;;7.50;99.90;;;;;;5091226;28;20045;-61
2024/01/30 07:44:43;;;;;;;17.30;10.55;;;7.50;99.90;;;;;;5091794;28;20393;-61
2024/01/30 07:47:08;;;;;;;15.05;10.38;;;7.50;99.90;;;;;;5087160;28;20051;-61
2024/01/30 07:49:34;;;;;;;16.88;10.32;;;7.50;99.90;;;;;;5069798;28;20044;-61
2024/01/30 07:52:00;;;;;;;18.52;10.55;;;7.50;99.90;;;;;;5071836;28;20039;-61
2024/01/30 07:54:33;;;;;;;15.25;10.55;;;7.50;99.90;;;;;;5070819;28;20109;-61
2024/01/30 07:57:00;;;;;;;15.18;10.80;;;7.50;99.90;;;;;;5088864;28;20044;-61
2024/01/30 07:59:26;;;;;;;17.25;11.13;;;7.50;99.90;;;;;;5105206;28;20043;-61
2024/01/30 08:02:04;;;;;;;16.83;10.65;;;7.50;99.90;;;;;;5088371;28;20048;-61
2024/01/30 08:04:29;;;;;;;17.58;10.40;;;7.50;99.90;;;;;;5087855;28;20044;-61
2024/01/30 08:06:55;;;;;;;19.60;10.68;;;7.60;99.90;;;;;;5106671;28;20109;-61
2024/01/30 08:09:20;;;;;;;17.50;10.20;;;7.50;99.90;;;;;;5089644;28;20055;-61
2024/01/30 08:11:46;;;;;;;16.63;10.15;;;7.60;99.90;;;;;;5072660;28;20040;-61
2024/01/30 08:14:13;;;;;;;16.55;9.85;;;7.70;99.90;;;;;;5088925;28;20484;-61
2024/01/30 08:16:39;;;;;;;16.90;10.57;;;7.70;99.90;;;;;;5088773;28;20131;-61
2024/01/30 08:19:04;;;;;;;18.98;10.52;;;7.70;99.90;;;;;;5106446;28;20238;-61
2024/01/30 08:21:35;;;;;;;18.40;10.27;;;7.80;99.90;;;;;;5088405;28;20040;-61
2024/01/30 08:24:04;;;;;;;18.48;10.30;;;7.70;99.90;;;;;;5088996;28;20102;-61
2024/01/30 08:26:31;;;;;;;16.33;9.73;;;7.80;99.90;;;;;;5088249;28;20055;-61
2024/01/30 08:28:56;;;;;;;19.38;11.00;;;7.80;99.90;;;;;;5087043;28;20054;-61
2024/01/30 08:31:22;;;;;;;18.90;9.75;;;7.80;99.90;;;;;;5088144;28;20052;-61
2024/01/30 08:33:48;;;;;;;19.88;12.05;;;7.80;99.90;;;;;;5088374;28;20439;-61
2024/01/30 08:36:15;;;;;;;18.58;10.35;;;7.90;99.90;;;;;;5088736;28;20393;-61
2024/01/30 08:38:41;;;;;;;18.77;10.00;;;8.00;99.90;;;;;;5088448;28;20048;-61
2024/01/30 08:41:08;;;;;;;15.98;9.27;;;8.00;99.90;;;;;;5090357;28;20386;-61
2024/01/30 08:43:33;;;;;;;15.68;9.85;;;8.00;99.90;;;;;;5088080;28;20059;-61
2024/01/30 08:46:00;;;;;;;14.73;9.38;;;8.10;99.90;;;;;;5088559;28;20048;-61
2024/01/30 08:48:26;;;;;;;20.25;10.57;;;8.10;99.90;;;;;;5087925;28;20051;-61
2024/01/30 08:50:51;;;;;;;20.88;10.27;;;8.10;99.90;;;;;;5086614;28;20047;-61
2024/01/30 08:53:17;;;;;;;15.52;10.25;;;8.20;99.90;;;;;;5090076;28;20036;-61
2024/01/30 08:55:43;;;;;;;15.98;9.52;;;8.20;99.90;;;;;;5088979;28;20489;-61
2024/01/30 08:58:08;;;;;;;17.55;10.88;;;8.20;99.90;;;;;;5087607;28;20047;-61
2024/01/30 09:00:34;;;;;;;19.20;9.52;;;8.30;99.90;;;;;;5088104;28;20044;-61
2024/01/30 09:02:59;;;;;;;14.80;9.80;;;8.40;99.90;;;;;;5105455;28;20044;-61
2024/01/30 09:05:25;;;;;;;22.70;10.88;;;8.40;99.90;;;;;;5087803;28;20051;-61
2024/01/30 09:07:51;;;;;;;15.82;10.23;;;8.50;99.90;;;;;;5087808;28;20044;-61
2024/01/30 09:10:16;;;;;;;16.17;9.18;;;8.50;99.90;;;;;;5088289;28;20373;-61
2024/01/30 09:12:42;;;;;;;16.80;10.30;;;8.60;99.90;;;;;;5088396;28;20457;-61
2024/01/30 09:15:08;;;;;;;16.63;10.07;;;8.60;99.90;;;;;;5088000;28;20063;-61
2024/01/30 09:17:34;;;;;;;18.55;10.70;;;8.60;99.90;;;;;;5085968;28;20102;-61
2024/01/30 09:19:59;;;;;;;17.63;10.70;;;8.70;99.90;;;;;;5086492;28;20056;-61
2024/01/30 09:22:25;;;;;;;15.25;9.90;;;8.70;99.90;;;;;;5092472;28;20511;-61
2024/01/30 09:24:51;;;;;;;18.10;9.88;;;8.70;99.90;;;;;;5088506;28;20140;-61
2024/01/30 09:27:16;;;;;;;15.93;10.48;;;8.70;99.90;;;;;;5087640;28;20420;-61
2024/01/30 09:29:42;;;;;;;21.10;10.27;;;8.80;99.90;;;;;;5089031;28;20387;-61
2024/01/30 09:32:09;;;;;;;20.33;9.35;;;8.80;99.90;;;;;;5087557;28;20078;-61
2024/01/30 09:34:34;;;;;;;18.80;10.38;;;8.90;99.90;;;;;;5087824;28;20048;-61
2024/01/30 09:37:00;;;;;;;19.27;10.85;;;8.90;99.90;;;;;;5089022;28;20492;-61
2024/01/30 09:39:26;;;;;;;20.02;10.50;;;8.90;99.90;;;;;;5097545;28;20040;-61
2024/01/30 09:42:02;;;;;;;16.80;10.73;;;8.90;99.90;;;;;;5087882;28;20048;-61
2024/01/30 09:44:30;;;;;;;17.00;9.02;;;9.00;99.90;;;;;;5075646;28;20284;-61
2024/01/30 09:46:58;;;;;;;21.23;10.40;;;9.00;99.90;;;;;;5103825;28;20047;-61
2024/01/30 09:49:24;;;;;;;18.98;10.25;;;9.10;99.90;;;;;;5068083;28;20056;-61
2024/01/30 09:51:51;;;;;;;16.90;8.85;;;9.20;99.90;;;;;;5083209;28;20575;-61
2024/01/30 09:54:18;;;;;;;18.33;9.82;;;9.20;99.90;;;;;;5102981;28;20047;-61
2024/01/30 09:56:44;;;;;;;15.75;9.10;;;9.30;99.90;;;;;;5088170;28;20048;-61
2024/01/30 09:59:09;;;;;;;18.73;10.40;;;9.30;99.90;;;;;;5087496;28;20369;-61
2024/01/30 10:01:36;;;;;;;15.45;9.07;;;9.40;99.90;;;;;;5086514;28;20055;-61
2024/01/30 10:04:01;;;;;;;22.20;10.20;;;9.40;99.90;;;;;;5089505;28;20111;-61
2024/01/30 10:06:28;;;;;;;15.93;9.82;;;9.40;99.90;;;;;;5087445;28;20549;-61
2024/01/30 10:08:53;;;;;;;15.50;9.85;;;9.40;99.90;;;;;;5087001;28;20060;-61
2024/01/30 10:11:19;;;;;;;18.38;10.80;;;9.40;99.90;;;;;;5070393;28;20079;-61
2024/01/30 10:13:45;;;;;;;16.60;9.73;;;9.50;99.90;;;;;;5080118;28;20044;-61
2024/01/30 10:16:16;;;;;;;19.42;9.25;;;9.50;99.90;;;;;;5090889;28;20430;-61
2024/01/30 10:18:42;;;;;;;19.98;9.48;;;9.50;99.90;;;;;;5092578;28;20043;-61
2024/01/30 10:21:09;;;;;;;17.60;10.65;;;9.50;99.90;;;;;;5073287;28;20580;-61
2024/01/30 10:23:35;;;;;;;18.95;8.88;;;9.50;99.90;;;;;;5092842;28;20519;-61
2024/01/30 10:26:02;;;;;;;19.08;9.48;;;9.50;99.90;;;;;;5092857;28;20048;-61
2024/01/30 10:28:30;;;;;;;16.70;8.45;;;9.60;99.90;;;;;;5090449;28;20121;-61
2024/01/30 10:31:05;;;;;;;13.57;8.70;;;9.50;99.90;;;;;;5090211;28;20084;-60
2024/01/30 10:33:31;;;;;;;16.60;8.15;;;9.60;99.90;;;;;;5095490;28;20123;-60
2024/01/30 10:36:02;;;;;;;11.85;8.07;;;9.60;99.90;;;;;;5090401;28;20119;-60
2024/01/30 10:38:32;;;;;;;13.35;7.80;;;9.60;99.90;;;;;;5090902;28;20040;-60
2024/01/30 10:40:59;;;;;;;13.07;8.68;;;9.60;99.90;;;;;;5084571;28;20163;-60
2024/01/30 10:43:40;;;;;;;13.40;8.32;;;9.50;99.90;;;;;;5072497;28;20474;-60
2024/01/30 10:46:29;;;;;;;10.18;6.95;;;9.50;99.90;;;;;;5086129;28;20119;-60
2024/01/30 10:48:59;;;;;;;16.95;7.63;;;9.50;99.90;;;;;;5094796;28;20040;-60
2024/01/30 10:51:28;;;;;;;18.35;6.70;;;9.50;99.90;;;;;;5092412;28;20048;-60
2024/01/30 10:53:55;;;;;;;12.60;6.25;;;9.50;99.90;;;;;;5094060;28;20036;-61
2024/01/30 10:56:21;;;;;;;15.38;7.35;;;9.50;99.90;;;;;;5092469;28;20044;-60
2024/01/30 10:58:52;;;;;;;9.98;5.35;;;9.50;99.90;;;;;;5094256;28;20036;-60
2024/01/30 11:01:23;;;;;;;12.90;4.97;;;9.40;99.90;;;;;;5093212;28;20052;-60
2024/01/30 11:03:52;;;;;;;9.18;4.68;;;9.40;99.90;;;;;;5091711;28;20177;-60
2024/01/30 11:06:18;;;;;;;11.60;5.15;;;9.40;99.90;;;;;;5074846;28;20127;-60
2024/01/30 11:08:59;;;;;;;9.55;3.33;;;9.40;99.90;;;;;;5093067;28;20607;-60
2024/01/30 11:11:25;;;;;;;10.13;2.80;;;9.40;99.90;;;;;;5092024;28;20492;-60
2024/01/30 11:13:51;;;;;;;7.65;2.65;;;9.40;99.90;;;;;;5092462;28;20044;-60
2024/01/30 11:16:17;;;;;;;6.20;1.30;;;9.40;99.90;;;;;;5109738;28;20044;-60
2024/01/30 11:18:42;;;;;;;4.78;1.40;;;9.40;99.90;;;;;;5093051;28;20389;-60
2024/01/30 11:21:08;;;;;;;5.68;1.92;;;9.40;99.90;;;;;;5093950;28;20396;-60
2024/01/30 11:23:35;;;;;;;6.45;1.30;;;9.40;99.90;;;;;;5093494;28;20040;-60
2024/01/30 11:26:02;;;;;;;3.85;1.85;;;9.40;99.90;;;;;;5092035;28;20493;-60
2024/01/30 11:28:34;;;;;;;3.67;1.20;;;9.40;99.90;;;;;;5092326;28;20055;-60
2024/01/30 11:31:04;;;;;;;2.95;0.98;;;9.40;99.90;;;;;;5092537;28;20097;-60
2024/01/30 11:33:30;;;;;;;4.05;1.45;;;9.30;99.90;;;;;;5108152;28;20055;-60
2024/01/30 11:35:59;;;;;;;4.97;1.88;;;9.30;99.90;;;;;;5094187;28;20373;-60
2024/01/30 11:38:29;;;;;;;3.22;1.02;;;9.30;99.90;;;;;;5091656;28;20076;-60
2024/01/30 11:40:57;;;;;;;6.43;2.15;;;9.30;99.90;;;;;;5092187;28;20047;-60
2024/01/30 11:43:23;;;;;;;5.63;1.70;;;9.30;99.90;;;;;;5092482;28;20050;-60
2024/01/30 11:45:49;;;;;;;6.75;1.83;;;9.40;99.90;;;;;;5091440;28;20036;-60
2024/01/30 11:48:15;;;;;;;6.53;2.00;;;9.30;99.90;;;;;;5091808;28;20039;-60
2024/01/30 11:50:41;;;;;;;5.18;1.63;;;9.30;99.90;;;;;;5092003;28;20036;-60
2024/01/30 11:53:06;;;;;;;5.85;1.88;;;9.30;99.90;;;;;;5091441;28;20052;-60
2024/01/30 11:55:33;;;;;;;9.98;1.95;;;9.30;99.90;;;;;;5091709;28;20423;-60
2024/01/30 11:57:59;;;;;;;6.70;2.00;;;9.20;99.90;;;;;;5092218;28;20046;-60
2024/01/30 12:00:25;;;;;;;5.60;1.65;;;9.20;99.90;;;;;;5090917;28;20048;-60
2024/01/30 12:02:55;;;;;;;5.50;2.30;;;9.10;99.90;;;;;;5091644;28;20092;-60
2024/01/30 12:05:21;;;;;;;5.88;2.42;;;9.10;99.90;;;;;;5091886;28;20405;-60
2024/01/30 12:07:47;;;;;;;7.50;2.25;;;9.10;99.90;;;;;;5092336;28;20052;-61
2024/01/30 12:10:14;;;;;;;7.80;2.20;;;9.10;99.90;;;;;;5091928;28;20397;-60
2024/01/30 12:12:41;;;;;;;7.15;2.35;;;9.00;99.90;;;;;;5092679;28;20493;-60
2024/01/30 12:15:07;;;;;;;9.15;2.10;;;9.10;99.90;;;;;;5090896;28;20118;-60
2024/01/30 12:17:37;;;;;;;4.85;2.25;;;9.10;99.90;;;;;;5091381;28;20054;-61
2024/01/30 12:20:06;;;;;;;6.80;2.10;;;9.10;99.90;;;;;;5091806;28;20032;-60
2024/01/30 12:22:36;;;;;;;6.05;1.80;;;9.10;99.90;;;;;;5090521;28;20118;-60
2024/01/30 12:25:03;;;;;;;6.15;1.85;;;9.10;99.90;;;;;;5091735;28;20047;-60
2024/01/30 12:27:29;;;;;;;5.53;1.45;;;9.10;99.90;;;;;;5091465;28;20138;-60
2024/01/30 12:29:58;;;;;;;7.38;2.15;;;9.20;99.90;;;;;;5090782;28;20040;-60
2024/01/30 12:32:24;;;;;;;4.47;2.00;;;9.10;99.90;;;;;;5091180;28;20487;-60
2024/01/30 12:34:49;;;;;;;5.93;1.88;;;9.10;99.90;;;;;;5090433;28;20043;-60
2024/01/30 12:37:19;;;;;;;5.30;2.10;;;9.00;99.90;;;;;;5090622;28;20035;-60